sensor_id;sensor_type;location;lat;lon;timestamp;P1;durP1;ratioP1;P2;durP2;ratioP2
2998;SDS011;1509;51.964;7.628;2022-08-19T00:02:04;8.27;;;7.00;;
2998;SDS011;1509;51.964;7.628;2022-08-19T00:04:31;8.43;;;7.07;;
2998;SDS011;1509;51.964;7.628;2022-08-19T00:07:01;7.53;;;6.40;;
2998;SDS011;1509;51.964;7.628;2022-08-19T00:09:28;12.83;;;7.77;;
2998;SDS011;1509;51.964;7.628;2022-08-19T00:11:54;8.83;;;7.80;;
2998;SDS011;1509;51.964;7.628;2022-08-19T00:14:21;12.83;;;7.67;;
2998;SDS011;1509;51.964;7.628;2022-08-19T00:16:48;10.77;;;7.67;;
2998;SDS011;1509;51.964;7.628;2022-08-19T00:19:15;8.73;;;7.57;;
2998;SDS011;1509;51.964;7.628;2022-08-19T00:21:41;11.87;;;8.27;;
2998;SDS011;1509;51.964;7.628;2022-08-19T00:24:08;10.97;;;8.20;;
2998;SDS011;1509;51.964;7.628;2022-08-19T00:26:35;10.60;;;7.73;;
2998;SDS011;1509;51.964;7.628;2022-08-19T00:29:02;9.10;;;7.43;;
2998;SDS011;1509;51.964;7.628;2022-08-19T00:31:29;9.77;;;8.50;;
2998;SDS011;1509;51.964;7.628;2022-08-19T00:33:56;11.53;;;9.90;;
2998;SDS011;1509;51.964;7.628;2022-08-19T00:36:22;13.70;;;9.87;;
2998;SDS011;1509;51.964;7.628;2022-08-19T00:38:47;11.50;;;7.80;;
2998;SDS011;1509;51.964;7.628;2022-08-19T00:41:14;12.10;;;9.37;;
2998;SDS011;1509;51.964;7.628;2022-08-19T00:43:42;10.83;;;8.63;;
2998;SDS011;1509;51.964;7.628;2022-08-19T00:46:08;9.47;;;8.50;;
2998;SDS011;1509;51.964;7.628;2022-08-19T00:48:34;12.03;;;8.20;;
2998;SDS011;1509;51.964;7.628;2022-08-19T00:51:01;12.93;;;9.60;;
2998;SDS011;1509;51.964;7.628;2022-08-19T00:53:28;11.23;;;9.17;;
2998;SDS011;1509;51.964;7.628;2022-08-19T00:55:58;11.90;;;9.60;;
2998;SDS011;1509;51.964;7.628;2022-08-19T00:58:26;12.80;;;9.80;;
2998;SDS011;1509;51.964;7.628;2022-08-19T01:00:56;11.60;;;8.40;;
2998;SDS011;1509;51.964;7.628;2022-08-19T01:03:22;14.20;;;9.40;;
2998;SDS011;1509;51.964;7.628;2022-08-19T01:05:48;13.53;;;8.43;;
2998;SDS011;1509;51.964;7.628;2022-08-19T01:08:16;11.67;;;9.00;;
2998;SDS011;1509;51.964;7.628;2022-08-19T01:10:45;13.43;;;9.03;;
2998;SDS011;1509;51.964;7.628;2022-08-19T01:13:14;12.00;;;8.10;;
2998;SDS011;1509;51.964;7.628;2022-08-19T01:15:43;11.20;;;9.20;;
2998;SDS011;1509;51.964;7.628;2022-08-19T01:18:13;16.63;;;9.40;;
2998;SDS011;1509;51.964;7.628;2022-08-19T01:20:41;12.43;;;8.80;;
2998;SDS011;1509;51.964;7.628;2022-08-19T01:23:07;12.40;;;9.97;;
2998;SDS011;1509;51.964;7.628;2022-08-19T01:25:39;12.67;;;9.67;;
2998;SDS011;1509;51.964;7.628;2022-08-19T01:28:06;11.63;;;8.70;;
2998;SDS011;1509;51.964;7.628;2022-08-19T01:30:33;12.57;;;9.23;;
2998;SDS011;1509;51.964;7.628;2022-08-19T01:33:00;10.70;;;8.40;;
2998;SDS011;1509;51.964;7.628;2022-08-19T01:35:30;11.50;;;7.80;;
2998;SDS011;1509;51.964;7.628;2022-08-19T01:38:00;14.10;;;9.70;;
2998;SDS011;1509;51.964;7.628;2022-08-19T01:40:31;13.43;;;9.30;;
2998;SDS011;1509;51.964;7.628;2022-08-19T01:42:58;11.60;;;8.80;;
2998;SDS011;1509;51.964;7.628;2022-08-19T01:45:25;16.50;;;11.07;;
2998;SDS011;1509;51.964;7.628;2022-08-19T01:47:53;13.30;;;9.47;;
2998;SDS011;1509;51.964;7.628;2022-08-19T01:50:19;10.50;;;8.53;;
2998;SDS011;1509;51.964;7.628;2022-08-19T01:52:45;13.03;;;8.60;;
2998;SDS011;1509;51.964;7.628;2022-08-19T01:55:14;13.13;;;9.43;;
2998;SDS011;1509;51.964;7.628;2022-08-19T01:57:43;14.90;;;9.33;;
2998;SDS011;1509;51.964;7.628;2022-08-19T02:00:13;14.60;;;10.27;;
2998;SDS011;1509;51.964;7.628;2022-08-19T02:02:41;12.40;;;9.80;;
2998;SDS011;1509;51.964;7.628;2022-08-19T02:05:07;14.17;;;10.60;;
2998;SDS011;1509;51.964;7.628;2022-08-19T02:07:34;11.00;;;8.60;;
2998;SDS011;1509;51.964;7.628;2022-08-19T02:10:07;12.03;;;9.20;;
2998;SDS011;1509;51.964;7.628;2022-08-19T02:12:42;12.17;;;10.70;;
2998;SDS011;1509;51.964;7.628;2022-08-19T02:15:08;13.53;;;9.73;;
2998;SDS011;1509;51.964;7.628;2022-08-19T02:17:34;13.60;;;9.50;;
2998;SDS011;1509;51.964;7.628;2022-08-19T02:20:00;14.70;;;9.27;;
2998;SDS011;1509;51.964;7.628;2022-08-19T02:22:26;13.63;;;10.57;;
2998;SDS011;1509;51.964;7.628;2022-08-19T02:24:52;13.07;;;10.17;;
2998;SDS011;1509;51.964;7.628;2022-08-19T02:27:19;14.30;;;10.10;;
2998;SDS011;1509;51.964;7.628;2022-08-19T02:29:46;12.90;;;9.13;;
2998;SDS011;1509;51.964;7.628;2022-08-19T02:32:13;14.93;;;10.20;;
2998;SDS011;1509;51.964;7.628;2022-08-19T02:34:42;14.40;;;9.90;;
2998;SDS011;1509;51.964;7.628;2022-08-19T02:37:08;13.47;;;9.83;;
2998;SDS011;1509;51.964;7.628;2022-08-19T02:39:53;15.20;;;11.53;;
2998;SDS011;1509;51.964;7.628;2022-08-19T02:42:19;14.40;;;9.80;;
2998;SDS011;1509;51.964;7.628;2022-08-19T02:44:44;13.50;;;10.27;;
2998;SDS011;1509;51.964;7.628;2022-08-19T02:47:10;13.83;;;10.60;;
2998;SDS011;1509;51.964;7.628;2022-08-19T02:49:35;13.00;;;10.43;;
2998;SDS011;1509;51.964;7.628;2022-08-19T02:52:02;13.00;;;10.57;;
2998;SDS011;1509;51.964;7.628;2022-08-19T02:54:28;18.27;;;11.20;;
2998;SDS011;1509;51.964;7.628;2022-08-19T02:56:53;15.83;;;9.97;;
2998;SDS011;1509;51.964;7.628;2022-08-19T02:59:19;16.70;;;11.10;;
2998;SDS011;1509;51.964;7.628;2022-08-19T03:01:45;14.63;;;12.33;;
2998;SDS011;1509;51.964;7.628;2022-08-19T03:04:12;16.77;;;11.87;;
2998;SDS011;1509;51.964;7.628;2022-08-19T03:06:40;15.93;;;12.90;;
2998;SDS011;1509;51.964;7.628;2022-08-19T03:09:07;20.10;;;12.40;;
2998;SDS011;1509;51.964;7.628;2022-08-19T03:11:33;15.77;;;12.10;;
2998;SDS011;1509;51.964;7.628;2022-08-19T03:13:59;19.90;;;12.90;;
2998;SDS011;1509;51.964;7.628;2022-08-19T03:16:25;16.97;;;11.70;;
2998;SDS011;1509;51.964;7.628;2022-08-19T03:18:53;16.63;;;11.70;;
2998;SDS011;1509;51.964;7.628;2022-08-19T03:21:22;24.37;;;14.27;;
2998;SDS011;1509;51.964;7.628;2022-08-19T03:23:49;18.20;;;13.70;;
2998;SDS011;1509;51.964;7.628;2022-08-19T03:26:18;21.03;;;14.10;;
2998;SDS011;1509;51.964;7.628;2022-08-19T03:28:44;20.07;;;15.13;;
2998;SDS011;1509;51.964;7.628;2022-08-19T03:31:15;16.90;;;13.70;;
2998;SDS011;1509;51.964;7.628;2022-08-19T03:33:43;22.80;;;15.40;;
2998;SDS011;1509;51.964;7.628;2022-08-19T03:36:13;19.03;;;13.50;;
2998;SDS011;1509;51.964;7.628;2022-08-19T03:38:44;17.73;;;13.50;;
2998;SDS011;1509;51.964;7.628;2022-08-19T03:41:16;18.73;;;14.93;;
2998;SDS011;1509;51.964;7.628;2022-08-19T03:43:44;22.50;;;13.47;;
2998;SDS011;1509;51.964;7.628;2022-08-19T03:46:18;22.20;;;16.03;;
2998;SDS011;1509;51.964;7.628;2022-08-19T03:48:46;24.60;;;15.07;;
2998;SDS011;1509;51.964;7.628;2022-08-19T03:51:21;26.20;;;15.40;;
2998;SDS011;1509;51.964;7.628;2022-08-19T03:53:47;20.97;;;15.90;;
2998;SDS011;1509;51.964;7.628;2022-08-19T03:56:12;18.47;;;14.63;;
2998;SDS011;1509;51.964;7.628;2022-08-19T03:58:39;20.53;;;14.10;;
2998;SDS011;1509;51.964;7.628;2022-08-19T04:01:09;21.27;;;14.23;;
2998;SDS011;1509;51.964;7.628;2022-08-19T04:03:37;21.63;;;15.60;;
2998;SDS011;1509;51.964;7.628;2022-08-19T04:06:16;24.00;;;14.47;;
2998;SDS011;1509;51.964;7.628;2022-08-19T04:08:44;17.33;;;13.67;;
2998;SDS011;1509;51.964;7.628;2022-08-19T04:11:11;23.53;;;14.87;;
2998;SDS011;1509;51.964;7.628;2022-08-19T04:13:39;19.53;;;14.40;;
2998;SDS011;1509;51.964;7.628;2022-08-19T04:16:05;20.70;;;14.67;;
2998;SDS011;1509;51.964;7.628;2022-08-19T04:18:32;20.50;;;16.70;;
2998;SDS011;1509;51.964;7.628;2022-08-19T04:20:58;21.47;;;14.03;;
2998;SDS011;1509;51.964;7.628;2022-08-19T04:23:24;19.67;;;15.10;;
2998;SDS011;1509;51.964;7.628;2022-08-19T04:25:50;20.23;;;14.17;;
2998;SDS011;1509;51.964;7.628;2022-08-19T04:28:15;20.20;;;14.30;;
2998;SDS011;1509;51.964;7.628;2022-08-19T04:30:42;19.27;;;14.07;;
2998;SDS011;1509;51.964;7.628;2022-08-19T04:33:16;19.20;;;13.50;;
2998;SDS011;1509;51.964;7.628;2022-08-19T04:35:45;18.83;;;13.33;;
2998;SDS011;1509;51.964;7.628;2022-08-19T04:38:13;19.17;;;13.80;;
2998;SDS011;1509;51.964;7.628;2022-08-19T04:40:41;17.17;;;13.70;;
2998;SDS011;1509;51.964;7.628;2022-08-19T04:43:27;21.83;;;14.13;;
2998;SDS011;1509;51.964;7.628;2022-08-19T04:45:53;17.67;;;13.80;;
2998;SDS011;1509;51.964;7.628;2022-08-19T04:48:19;23.00;;;13.43;;
2998;SDS011;1509;51.964;7.628;2022-08-19T04:50:50;21.67;;;14.00;;
2998;SDS011;1509;51.964;7.628;2022-08-19T04:53:21;18.97;;;15.10;;
2998;SDS011;1509;51.964;7.628;2022-08-19T04:55:47;18.10;;;13.67;;
2998;SDS011;1509;51.964;7.628;2022-08-19T04:58:12;14.70;;;12.07;;
2998;SDS011;1509;51.964;7.628;2022-08-19T05:00:38;20.20;;;12.97;;
2998;SDS011;1509;51.964;7.628;2022-08-19T05:03:04;20.53;;;15.10;;
2998;SDS011;1509;51.964;7.628;2022-08-19T05:05:30;19.17;;;12.90;;
2998;SDS011;1509;51.964;7.628;2022-08-19T05:07:56;21.13;;;14.37;;
2998;SDS011;1509;51.964;7.628;2022-08-19T05:10:22;19.70;;;13.83;;
2998;SDS011;1509;51.964;7.628;2022-08-19T05:12:47;18.93;;;12.87;;
2998;SDS011;1509;51.964;7.628;2022-08-19T05:15:13;16.27;;;12.90;;
2998;SDS011;1509;51.964;7.628;2022-08-19T05:17:39;17.77;;;12.90;;
2998;SDS011;1509;51.964;7.628;2022-08-19T05:20:24;17.87;;;13.10;;
2998;SDS011;1509;51.964;7.628;2022-08-19T05:23:10;20.10;;;14.07;;
2998;SDS011;1509;51.964;7.628;2022-08-19T05:25:38;17.57;;;12.43;;
2998;SDS011;1509;51.964;7.628;2022-08-19T05:28:04;16.70;;;13.20;;
2998;SDS011;1509;51.964;7.628;2022-08-19T05:30:30;16.53;;;13.77;;
2998;SDS011;1509;51.964;7.628;2022-08-19T05:32:57;20.03;;;13.50;;
2998;SDS011;1509;51.964;7.628;2022-08-19T05:35:22;16.33;;;12.57;;
2998;SDS011;1509;51.964;7.628;2022-08-19T05:37:48;18.73;;;14.03;;
2998;SDS011;1509;51.964;7.628;2022-08-19T05:40:14;20.10;;;13.10;;
2998;SDS011;1509;51.964;7.628;2022-08-19T05:42:40;17.37;;;13.70;;
2998;SDS011;1509;51.964;7.628;2022-08-19T05:45:07;17.07;;;13.60;;
2998;SDS011;1509;51.964;7.628;2022-08-19T05:47:33;16.57;;;12.90;;
2998;SDS011;1509;51.964;7.628;2022-08-19T05:49:59;20.07;;;12.23;;
2998;SDS011;1509;51.964;7.628;2022-08-19T05:52:27;20.23;;;13.97;;
2998;SDS011;1509;51.964;7.628;2022-08-19T05:54:53;15.37;;;13.07;;
2998;SDS011;1509;51.964;7.628;2022-08-19T05:57:20;16.20;;;12.33;;
2998;SDS011;1509;51.964;7.628;2022-08-19T05:59:46;18.50;;;12.30;;
2998;SDS011;1509;51.964;7.628;2022-08-19T06:02:13;17.70;;;11.83;;
2998;SDS011;1509;51.964;7.628;2022-08-19T06:04:39;18.70;;;11.23;;
2998;SDS011;1509;51.964;7.628;2022-08-19T06:07:07;22.00;;;13.20;;
2998;SDS011;1509;51.964;7.628;2022-08-19T06:09:33;22.50;;;13.37;;
2998;SDS011;1509;51.964;7.628;2022-08-19T06:12:00;21.80;;;14.70;;
2998;SDS011;1509;51.964;7.628;2022-08-19T06:14:27;20.67;;;13.00;;
2998;SDS011;1509;51.964;7.628;2022-08-19T06:16:55;26.97;;;13.47;;
2998;SDS011;1509;51.964;7.628;2022-08-19T06:19:25;19.20;;;13.60;;
2998;SDS011;1509;51.964;7.628;2022-08-19T06:21:51;15.60;;;11.03;;
2998;SDS011;1509;51.964;7.628;2022-08-19T06:24:20;16.37;;;11.23;;
2998;SDS011;1509;51.964;7.628;2022-08-19T06:26:48;18.03;;;11.73;;
2998;SDS011;1509;51.964;7.628;2022-08-19T06:29:16;15.33;;;11.10;;
2998;SDS011;1509;51.964;7.628;2022-08-19T06:31:45;17.10;;;11.90;;
2998;SDS011;1509;51.964;7.628;2022-08-19T06:34:14;17.73;;;12.47;;
2998;SDS011;1509;51.964;7.628;2022-08-19T06:36:41;23.67;;;13.47;;
2998;SDS011;1509;51.964;7.628;2022-08-19T06:39:19;18.77;;;11.83;;
2998;SDS011;1509;51.964;7.628;2022-08-19T06:41:49;16.10;;;11.90;;
2998;SDS011;1509;51.964;7.628;2022-08-19T06:44:17;19.13;;;13.07;;
2998;SDS011;1509;51.964;7.628;2022-08-19T06:46:44;20.57;;;13.23;;
2998;SDS011;1509;51.964;7.628;2022-08-19T06:49:10;17.50;;;12.70;;
2998;SDS011;1509;51.964;7.628;2022-08-19T06:51:38;16.93;;;12.37;;
2998;SDS011;1509;51.964;7.628;2022-08-19T06:54:08;21.43;;;12.90;;
2998;SDS011;1509;51.964;7.628;2022-08-19T06:56:34;20.07;;;14.67;;
2998;SDS011;1509;51.964;7.628;2022-08-19T06:59:05;21.30;;;14.70;;
2998;SDS011;1509;51.964;7.628;2022-08-19T07:01:39;22.10;;;13.40;;
2998;SDS011;1509;51.964;7.628;2022-08-19T07:04:12;20.07;;;13.00;;
2998;SDS011;1509;51.964;7.628;2022-08-19T07:06:40;19.10;;;14.43;;
2998;SDS011;1509;51.964;7.628;2022-08-19T07:09:07;19.10;;;13.70;;
2998;SDS011;1509;51.964;7.628;2022-08-19T07:11:34;20.73;;;13.87;;
2998;SDS011;1509;51.964;7.628;2022-08-19T07:14:00;20.33;;;14.90;;
2998;SDS011;1509;51.964;7.628;2022-08-19T07:16:27;19.33;;;14.03;;
2998;SDS011;1509;51.964;7.628;2022-08-19T07:18:54;24.40;;;15.60;;
2998;SDS011;1509;51.964;7.628;2022-08-19T07:21:23;27.63;;;14.40;;
2998;SDS011;1509;51.964;7.628;2022-08-19T07:23:56;24.53;;;17.23;;
2998;SDS011;1509;51.964;7.628;2022-08-19T07:26:25;18.10;;;13.10;;
2998;SDS011;1509;51.964;7.628;2022-08-19T07:28:54;17.60;;;12.40;;
2998;SDS011;1509;51.964;7.628;2022-08-19T07:31:23;19.33;;;13.83;;
2998;SDS011;1509;51.964;7.628;2022-08-19T07:33:51;20.33;;;13.50;;
2998;SDS011;1509;51.964;7.628;2022-08-19T07:36:21;20.70;;;13.87;;
2998;SDS011;1509;51.964;7.628;2022-08-19T07:38:49;20.37;;;13.20;;
2998;SDS011;1509;51.964;7.628;2022-08-19T07:41:17;18.20;;;13.80;;
2998;SDS011;1509;51.964;7.628;2022-08-19T07:43:45;18.87;;;13.70;;
2998;SDS011;1509;51.964;7.628;2022-08-19T07:46:11;19.57;;;13.93;;
2998;SDS011;1509;51.964;7.628;2022-08-19T07:48:39;14.97;;;10.73;;
2998;SDS011;1509;51.964;7.628;2022-08-19T07:51:07;18.53;;;12.30;;
2998;SDS011;1509;51.964;7.628;2022-08-19T07:53:34;17.80;;;12.10;;
2998;SDS011;1509;51.964;7.628;2022-08-19T07:56:01;14.57;;;11.70;;
2998;SDS011;1509;51.964;7.628;2022-08-19T07:58:30;15.00;;;11.40;;
2998;SDS011;1509;51.964;7.628;2022-08-19T08:00:57;16.47;;;11.47;;
2998;SDS011;1509;51.964;7.628;2022-08-19T08:03:23;14.37;;;10.50;;
2998;SDS011;1509;51.964;7.628;2022-08-19T08:06:10;19.10;;;11.63;;
2998;SDS011;1509;51.964;7.628;2022-08-19T08:08:54;19.10;;;12.67;;
2998;SDS011;1509;51.964;7.628;2022-08-19T08:11:36;15.53;;;11.60;;
2998;SDS011;1509;51.964;7.628;2022-08-19T08:14:24;17.30;;;11.57;;
2998;SDS011;1509;51.964;7.628;2022-08-19T08:17:02;18.63;;;10.80;;
2998;SDS011;1509;51.964;7.628;2022-08-19T08:19:29;14.70;;;12.50;;
2998;SDS011;1509;51.964;7.628;2022-08-19T08:21:59;16.60;;;11.57;;
2998;SDS011;1509;51.964;7.628;2022-08-19T08:24:27;16.80;;;10.80;;
2998;SDS011;1509;51.964;7.628;2022-08-19T08:26:56;14.80;;;11.60;;
2998;SDS011;1509;51.964;7.628;2022-08-19T08:29:23;16.70;;;10.13;;
2998;SDS011;1509;51.964;7.628;2022-08-19T08:31:50;16.43;;;10.93;;
2998;SDS011;1509;51.964;7.628;2022-08-19T08:34:16;16.60;;;11.30;;
2998;SDS011;1509;51.964;7.628;2022-08-19T08:36:43;18.37;;;11.70;;
2998;SDS011;1509;51.964;7.628;2022-08-19T08:39:11;14.50;;;11.33;;
2998;SDS011;1509;51.964;7.628;2022-08-19T08:41:47;13.97;;;10.97;;
2998;SDS011;1509;51.964;7.628;2022-08-19T08:44:51;13.20;;;10.97;;
2998;SDS011;1509;51.964;7.628;2022-08-19T08:47:23;12.23;;;10.00;;
2998;SDS011;1509;51.964;7.628;2022-08-19T08:49:56;15.00;;;10.60;;
2998;SDS011;1509;51.964;7.628;2022-08-19T08:52:29;9.20;;;8.03;;
2998;SDS011;1509;51.964;7.628;2022-08-19T08:55:06;8.90;;;7.80;;
2998;SDS011;1509;51.964;7.628;2022-08-19T09:00:18;14.20;;;9.23;;
2998;SDS011;1509;51.964;7.628;2022-08-19T09:02:45;12.97;;;8.50;;
2998;SDS011;1509;51.964;7.628;2022-08-19T09:05:11;13.93;;;8.73;;
2998;SDS011;1509;51.964;7.628;2022-08-19T09:07:41;7.80;;;7.10;;
2998;SDS011;1509;51.964;7.628;2022-08-19T09:15:43;8.50;;;7.30;;
2998;SDS011;1509;51.964;7.628;2022-08-19T09:18:13;8.90;;;7.17;;
2998;SDS011;1509;51.964;7.628;2022-08-19T09:20:39;7.47;;;6.27;;
2998;SDS011;1509;51.964;7.628;2022-08-19T09:23:04;7.83;;;7.03;;
2998;SDS011;1509;51.964;7.628;2022-08-19T09:25:30;8.23;;;7.23;;
2998;SDS011;1509;51.964;7.628;2022-08-19T09:27:59;10.67;;;8.37;;
2998;SDS011;1509;51.964;7.628;2022-08-19T09:30:28;8.83;;;7.03;;
2998;SDS011;1509;51.964;7.628;2022-08-19T09:32:56;10.03;;;6.83;;
2998;SDS011;1509;51.964;7.628;2022-08-19T09:35:22;9.10;;;6.70;;
2998;SDS011;1509;51.964;7.628;2022-08-19T09:37:50;8.63;;;6.77;;
2998;SDS011;1509;51.964;7.628;2022-08-19T09:40:17;6.37;;;5.40;;
2998;SDS011;1509;51.964;7.628;2022-08-19T09:42:43;9.07;;;6.60;;
2998;SDS011;1509;51.964;7.628;2022-08-19T09:45:11;6.50;;;5.80;;
2998;SDS011;1509;51.964;7.628;2022-08-19T09:47:37;6.10;;;5.50;;
2998;SDS011;1509;51.964;7.628;2022-08-19T09:50:07;7.20;;;6.03;;
2998;SDS011;1509;51.964;7.628;2022-08-19T09:52:33;6.10;;;4.20;;
2998;SDS011;1509;51.964;7.628;2022-08-19T09:55:07;7.50;;;5.83;;
2998;SDS011;1509;51.964;7.628;2022-08-19T09:57:34;7.47;;;5.07;;
2998;SDS011;1509;51.964;7.628;2022-08-19T10:00:05;6.47;;;5.30;;
2998;SDS011;1509;51.964;7.628;2022-08-19T10:02:32;6.50;;;5.03;;
2998;SDS011;1509;51.964;7.628;2022-08-19T10:04:58;7.10;;;4.60;;
2998;SDS011;1509;51.964;7.628;2022-08-19T10:07:42;6.67;;;5.23;;
2998;SDS011;1509;51.964;7.628;2022-08-19T10:10:08;6.00;;;5.03;;
2998;SDS011;1509;51.964;7.628;2022-08-19T10:12:34;5.87;;;4.90;;
2998;SDS011;1509;51.964;7.628;2022-08-19T10:15:00;5.87;;;5.23;;
2998;SDS011;1509;51.964;7.628;2022-08-19T10:17:26;5.23;;;4.73;;
2998;SDS011;1509;51.964;7.628;2022-08-19T10:19:53;5.37;;;4.87;;
2998;SDS011;1509;51.964;7.628;2022-08-19T10:22:19;8.20;;;6.27;;
2998;SDS011;1509;51.964;7.628;2022-08-19T10:24:45;5.10;;;4.60;;
2998;SDS011;1509;51.964;7.628;2022-08-19T10:27:11;6.47;;;5.87;;
2998;SDS011;1509;51.964;7.628;2022-08-19T10:29:39;5.33;;;4.87;;
2998;SDS011;1509;51.964;7.628;2022-08-19T10:32:05;5.40;;;4.90;;
2998;SDS011;1509;51.964;7.628;2022-08-19T10:34:33;5.50;;;5.00;;
2998;SDS011;1509;51.964;7.628;2022-08-19T10:37:00;6.10;;;5.50;;
2998;SDS011;1509;51.964;7.628;2022-08-19T10:39:26;7.53;;;4.50;;
2998;SDS011;1509;51.964;7.628;2022-08-19T10:41:54;5.00;;;4.40;;
2998;SDS011;1509;51.964;7.628;2022-08-19T10:44:21;5.23;;;4.73;;
2998;SDS011;1509;51.964;7.628;2022-08-19T10:46:48;4.20;;;3.80;;
2998;SDS011;1509;51.964;7.628;2022-08-19T10:49:13;5.17;;;4.67;;
2998;SDS011;1509;51.964;7.628;2022-08-19T10:51:39;4.10;;;3.70;;
2998;SDS011;1509;51.964;7.628;2022-08-19T10:54:24;4.83;;;4.10;;
2998;SDS011;1509;51.964;7.628;2022-08-19T10:57:10;4.53;;;3.40;;
2998;SDS011;1509;51.964;7.628;2022-08-19T10:59:36;4.80;;;3.60;;
2998;SDS011;1509;51.964;7.628;2022-08-19T11:02:04;3.73;;;3.30;;
2998;SDS011;1509;51.964;7.628;2022-08-19T11:04:32;4.53;;;4.00;;
2998;SDS011;1509;51.964;7.628;2022-08-19T11:06:58;4.87;;;3.33;;
2998;SDS011;1509;51.964;7.628;2022-08-19T11:09:24;3.40;;;3.10;;
2998;SDS011;1509;51.964;7.628;2022-08-19T11:11:54;3.70;;;3.40;;
2998;SDS011;1509;51.964;7.628;2022-08-19T11:14:21;4.13;;;3.27;;
2998;SDS011;1509;51.964;7.628;2022-08-19T11:16:49;8.00;;;3.43;;
2998;SDS011;1509;51.964;7.628;2022-08-19T11:19:15;3.67;;;3.37;;
2998;SDS011;1509;51.964;7.628;2022-08-19T11:21:44;4.93;;;3.40;;
2998;SDS011;1509;51.964;7.628;2022-08-19T11:24:13;3.83;;;3.50;;
2998;SDS011;1509;51.964;7.628;2022-08-19T11:26:45;9.10;;;4.30;;
2998;SDS011;1509;51.964;7.628;2022-08-19T11:29:11;5.20;;;4.23;;
2998;SDS011;1509;51.964;7.628;2022-08-19T11:31:38;5.40;;;4.50;;
2998;SDS011;1509;51.964;7.628;2022-08-19T11:34:07;6.43;;;5.20;;
2998;SDS011;1509;51.964;7.628;2022-08-19T11:36:36;5.40;;;4.90;;
2998;SDS011;1509;51.964;7.628;2022-08-19T11:39:04;5.90;;;5.27;;
2998;SDS011;1509;51.964;7.628;2022-08-19T11:41:31;5.20;;;4.70;;
2998;SDS011;1509;51.964;7.628;2022-08-19T11:43:57;5.03;;;4.60;;
2998;SDS011;1509;51.964;7.628;2022-08-19T11:46:24;5.03;;;4.47;;
2998;SDS011;1509;51.964;7.628;2022-08-19T11:48:54;4.40;;;3.97;;
2998;SDS011;1509;51.964;7.628;2022-08-19T11:51:21;4.97;;;4.30;;
2998;SDS011;1509;51.964;7.628;2022-08-19T11:53:49;5.10;;;4.70;;
2998;SDS011;1509;51.964;7.628;2022-08-19T11:56:15;5.13;;;3.90;;
2998;SDS011;1509;51.964;7.628;2022-08-19T11:58:42;4.17;;;3.77;;
2998;SDS011;1509;51.964;7.628;2022-08-19T12:01:09;5.03;;;4.47;;
2998;SDS011;1509;51.964;7.628;2022-08-19T12:03:37;6.40;;;4.70;;
2998;SDS011;1509;51.964;7.628;2022-08-19T12:06:10;5.67;;;4.63;;
2998;SDS011;1509;51.964;7.628;2022-08-19T12:08:38;6.77;;;6.07;;
2998;SDS011;1509;51.964;7.628;2022-08-19T12:11:05;5.97;;;5.37;;
2998;SDS011;1509;51.964;7.628;2022-08-19T12:13:35;6.63;;;6.03;;
2998;SDS011;1509;51.964;7.628;2022-08-19T12:16:06;5.77;;;5.27;;
2998;SDS011;1509;51.964;7.628;2022-08-19T12:18:37;6.53;;;5.93;;
2998;SDS011;1509;51.964;7.628;2022-08-19T12:21:04;7.10;;;6.40;;
2998;SDS011;1509;51.964;7.628;2022-08-19T12:23:30;8.00;;;6.80;;
2998;SDS011;1509;51.964;7.628;2022-08-19T12:25:55;8.70;;;7.90;;
2998;SDS011;1509;51.964;7.628;2022-08-19T12:28:23;8.87;;;8.07;;
2998;SDS011;1509;51.964;7.628;2022-08-19T12:30:49;10.27;;;7.70;;
2998;SDS011;1509;51.964;7.628;2022-08-19T12:33:16;8.37;;;7.63;;
2998;SDS011;1509;51.964;7.628;2022-08-19T12:35:43;9.10;;;8.30;;
2998;SDS011;1509;51.964;7.628;2022-08-19T12:38:11;9.10;;;8.20;;
2998;SDS011;1509;51.964;7.628;2022-08-19T12:40:38;8.77;;;7.77;;
2998;SDS011;1509;51.964;7.628;2022-08-19T12:43:05;7.57;;;6.20;;
2998;SDS011;1509;51.964;7.628;2022-08-19T12:45:34;7.93;;;7.23;;
2998;SDS011;1509;51.964;7.628;2022-08-19T12:47:59;8.47;;;6.23;;
2998;SDS011;1509;51.964;7.628;2022-08-19T12:50:25;9.30;;;6.90;;
2998;SDS011;1509;51.964;7.628;2022-08-19T12:52:51;6.57;;;5.83;;
2998;SDS011;1509;51.964;7.628;2022-08-19T12:55:17;5.87;;;5.37;;
2998;SDS011;1509;51.964;7.628;2022-08-19T12:57:43;6.57;;;5.93;;
2998;SDS011;1509;51.964;7.628;2022-08-19T13:00:11;6.80;;;6.10;;
2998;SDS011;1509;51.964;7.628;2022-08-19T13:02:40;6.53;;;5.93;;
2998;SDS011;1509;51.964;7.628;2022-08-19T13:05:10;6.27;;;5.00;;
2998;SDS011;1509;51.964;7.628;2022-08-19T13:07:39;5.73;;;5.23;;
2998;SDS011;1509;51.964;7.628;2022-08-19T13:10:06;5.90;;;5.40;;
2998;SDS011;1509;51.964;7.628;2022-08-19T13:12:33;6.10;;;5.50;;
2998;SDS011;1509;51.964;7.628;2022-08-19T13:14:58;5.60;;;5.03;;
2998;SDS011;1509;51.964;7.628;2022-08-19T13:17:24;7.33;;;5.20;;
2998;SDS011;1509;51.964;7.628;2022-08-19T13:19:50;8.47;;;5.60;;
2998;SDS011;1509;51.964;7.628;2022-08-19T13:22:15;7.90;;;4.90;;
2998;SDS011;1509;51.964;7.628;2022-08-19T13:24:41;5.93;;;5.33;;
2998;SDS011;1509;51.964;7.628;2022-08-19T13:27:07;7.90;;;5.90;;
2998;SDS011;1509;51.964;7.628;2022-08-19T13:29:33;6.57;;;5.97;;
2998;SDS011;1509;51.964;7.628;2022-08-19T13:32:17;5.93;;;5.33;;
2998;SDS011;1509;51.964;7.628;2022-08-19T13:35:02;6.53;;;5.83;;
2998;SDS011;1509;51.964;7.628;2022-08-19T13:37:28;6.20;;;5.60;;
2998;SDS011;1509;51.964;7.628;2022-08-19T13:40:16;6.07;;;5.53;;
2998;SDS011;1509;51.964;7.628;2022-08-19T13:42:44;5.33;;;4.57;;
2998;SDS011;1509;51.964;7.628;2022-08-19T13:45:12;5.93;;;5.43;;
2998;SDS011;1509;51.964;7.628;2022-08-19T13:47:40;6.50;;;5.37;;
2998;SDS011;1509;51.964;7.628;2022-08-19T13:50:11;6.03;;;5.43;;
2998;SDS011;1509;51.964;7.628;2022-08-19T13:52:40;6.03;;;5.40;;
2998;SDS011;1509;51.964;7.628;2022-08-19T13:55:06;6.80;;;5.30;;
2998;SDS011;1509;51.964;7.628;2022-08-19T13:57:32;6.10;;;5.60;;
2998;SDS011;1509;51.964;7.628;2022-08-19T13:59:59;6.60;;;5.90;;
2998;SDS011;1509;51.964;7.628;2022-08-19T14:02:25;6.27;;;5.73;;
2998;SDS011;1509;51.964;7.628;2022-08-19T14:04:51;7.07;;;5.70;;
2998;SDS011;1509;51.964;7.628;2022-08-19T14:07:17;7.20;;;6.33;;
2998;SDS011;1509;51.964;7.628;2022-08-19T14:09:43;10.03;;;6.77;;
2998;SDS011;1509;51.964;7.628;2022-08-19T14:12:08;7.17;;;6.37;;
2998;SDS011;1509;51.964;7.628;2022-08-19T14:14:37;6.97;;;5.60;;
2998;SDS011;1509;51.964;7.628;2022-08-19T14:17:07;10.47;;;6.50;;
2998;SDS011;1509;51.964;7.628;2022-08-19T14:19:33;7.30;;;6.37;;
2998;SDS011;1509;51.964;7.628;2022-08-19T14:21:58;8.43;;;6.10;;
2998;SDS011;1509;51.964;7.628;2022-08-19T14:24:25;9.07;;;6.33;;
2998;SDS011;1509;51.964;7.628;2022-08-19T14:26:51;6.70;;;5.50;;
2998;SDS011;1509;51.964;7.628;2022-08-19T14:29:16;6.57;;;5.97;;
2998;SDS011;1509;51.964;7.628;2022-08-19T14:31:42;8.67;;;6.20;;
2998;SDS011;1509;51.964;7.628;2022-08-19T14:34:09;7.43;;;5.77;;
2998;SDS011;1509;51.964;7.628;2022-08-19T14:36:35;7.37;;;6.67;;
2998;SDS011;1509;51.964;7.628;2022-08-19T14:39:02;6.30;;;5.70;;
2998;SDS011;1509;51.964;7.628;2022-08-19T14:41:28;8.50;;;6.90;;
2998;SDS011;1509;51.964;7.628;2022-08-19T14:43:55;7.00;;;6.30;;
2998;SDS011;1509;51.964;7.628;2022-08-19T14:46:22;7.90;;;7.00;;
2998;SDS011;1509;51.964;7.628;2022-08-19T14:48:50;6.40;;;5.80;;
2998;SDS011;1509;51.964;7.628;2022-08-19T14:51:17;6.60;;;5.90;;
2998;SDS011;1509;51.964;7.628;2022-08-19T14:53:43;7.97;;;6.17;;
2998;SDS011;1509;51.964;7.628;2022-08-19T14:56:10;7.40;;;6.13;;
2998;SDS011;1509;51.964;7.628;2022-08-19T14:58:42;7.50;;;6.50;;
2998;SDS011;1509;51.964;7.628;2022-08-19T15:01:08;6.93;;;5.63;;
2998;SDS011;1509;51.964;7.628;2022-08-19T15:03:35;5.90;;;5.30;;
2998;SDS011;1509;51.964;7.628;2022-08-19T15:06:02;7.60;;;6.40;;
2998;SDS011;1509;51.964;7.628;2022-08-19T15:08:29;7.73;;;5.43;;
2998;SDS011;1509;51.964;7.628;2022-08-19T15:10:57;7.00;;;5.80;;
2998;SDS011;1509;51.964;7.628;2022-08-19T15:13:24;6.63;;;5.93;;
2998;SDS011;1509;51.964;7.628;2022-08-19T15:15:52;6.30;;;5.60;;